Time;durP1;ratioP1;P1;durP2;ratioP2;P2;SDS_P1;SDS_P2;PMS_P1;PMS_P2;Temp;Humidity;BMP_temperature;BMP_pressure;BME280_temperature;BME280_humidity;BME280_pressure;Samples;Min_cycle;Max_cycle;Signal;HPM_P1;HPM_P2
2023/01/05 00:01:38;;;;;;;0.60;0.30;;;11.20;99.90;;;;;;4963021;28;20042;-67
2023/01/05 00:04:05;;;;;;;0.35;0.17;;;11.20;99.90;;;;;;4970308;28;20116;-68
2023/01/05 00:06:31;;;;;;;0.15;0.15;;;11.20;99.90;;;;;;4962287;28;20391;-68
2023/01/05 00:08:59;;;;;;;0.70;0.45;;;11.20;99.90;;;;;;4969480;28;20089;-68
2023/01/05 00:22:47;;;;;;;0.85;0.38;;;11.20;99.90;;;;;;4965061;28;20106;-68
2023/01/05 00:25:18;;;;;;;0.50;0.30;;;11.20;99.90;;;;;;4968648;28;20045;-68
2023/01/05 00:27:47;;;;;;;1.15;0.25;;;11.20;99.90;;;;;;4963072;28;20534;-68
2023/01/05 00:30:16;;;;;;;0.52;0.28;;;11.20;99.90;;;;;;4965184;28;20089;-69
2023/01/05 00:32:42;;;;;;;0.22;0.17;;;11.20;99.90;;;;;;4963522;28;20435;-68
2023/01/05 00:35:10;;;;;;;0.45;0.32;;;11.20;99.90;;;;;;4967478;28;20035;-68
2023/01/05 00:37:37;;;;;;;0.43;0.20;;;11.20;99.90;;;;;;4962974;28;20022;-68
2023/01/05 00:40:10;;;;;;;0.52;0.22;;;11.10;99.90;;;;;;4964774;28;20464;-68
2023/01/05 00:42:36;;;;;;;0.40;0.30;;;11.20;99.90;;;;;;4963307;28;20468;-68
2023/01/05 00:45:04;;;;;;;3.88;0.20;;;11.20;99.90;;;;;;4967635;28;20035;-68
2023/01/05 00:47:30;;;;;;;1.15;0.38;;;11.10;99.90;;;;;;4962999;28;20113;-68
2023/01/05 00:49:55;;;;;;;0.60;0.38;;;11.20;99.90;;;;;;4967096;28;20103;-68
2023/01/05 00:52:21;;;;;;;0.17;0.10;;;11.10;99.90;;;;;;4964353;28;20113;-68
2023/01/05 00:54:47;;;;;;;0.68;0.40;;;11.20;99.90;;;;;;4968824;28;20071;-68
2023/01/05 00:57:13;;;;;;;0.45;0.45;;;11.20;99.90;;;;;;4978211;28;20091;-68
2023/01/05 00:59:39;;;;;;;4.50;0.77;;;11.00;99.90;;;;;;4968654;28;20058;-68
2023/01/05 01:02:05;;;;;;;0.45;0.45;;;11.10;99.90;;;;;;4961760;28;20503;-68
2023/01/05 01:04:32;;;;;;;0.60;0.38;;;11.00;99.90;;;;;;4970770;28;20682;-68
2023/01/05 01:06:59;;;;;;;0.55;0.35;;;11.00;99.90;;;;;;4961463;28;20054;-68
2023/01/05 01:09:25;;;;;;;0.50;0.30;;;11.10;99.90;;;;;;4970318;28;20517;-68
2023/01/05 01:11:51;;;;;;;0.85;0.45;;;11.10;99.90;;;;;;4960298;28;20054;-68
2023/01/05 01:14:17;;;;;;;0.82;0.40;;;11.10;99.90;;;;;;4972144;28;20031;-68
2023/01/05 01:16:43;;;;;;;1.00;0.35;;;11.10;99.90;;;;;;4960681;28;20089;-68
2023/01/05 01:19:19;;;;;;;0.77;0.40;;;11.10;99.90;;;;;;4985679;23;20071;-73
2023/01/05 01:21:45;;;;;;;0.13;0.13;;;11.10;99.90;;;;;;4993988;28;20030;-74
2023/01/05 01:24:22;;;;;;;0.82;0.30;;;11.10;99.90;;;;;;5005929;28;20030;-74
2023/01/05 01:26:47;;;;;;;0.30;0.30;;;11.10;99.90;;;;;;4997670;28;20530;-73
2023/01/05 01:29:16;;;;;;;0.22;0.22;;;11.10;99.90;;;;;;5003511;28;20047;-73
2023/01/05 01:31:43;;;;;;;0.38;0.10;;;11.00;99.90;;;;;;4979638;28;20380;-73
2023/01/05 01:34:10;;;;;;;0.40;0.28;;;11.10;99.90;;;;;;5002288;28;20034;-74
2023/01/05 01:36:37;;;;;;;0.17;0.17;;;11.10;99.90;;;;;;4978058;28;20050;-74
2023/01/05 01:39:03;;;;;;;0.10;0.10;;;11.10;99.90;;;;;;4987619;28;20514;-73
2023/01/05 01:41:29;;;;;;;0.28;0.20;;;11.20;99.90;;;;;;4994509;28;20054;-73
2023/01/05 01:43:56;;;;;;;0.28;0.10;;;11.20;99.90;;;;;;4987483;28;20058;-73
2023/01/05 01:46:24;;;;;;;0.13;0.10;;;11.20;99.90;;;;;;4993831;28;20030;-74
2023/01/05 01:49:00;;;;;;;0.90;0.57;;;11.30;99.90;;;;;;4987366;28;20026;-73
2023/01/05 01:51:37;;;;;;;0.93;0.30;;;11.30;99.90;;;;;;4978304;28;20121;-74
2023/01/05 01:54:08;;;;;;;0.17;0.17;;;11.30;99.90;;;;;;4987204;28;20101;-74
2023/01/05 01:56:40;;;;;;;0.25;0.20;;;11.30;99.90;;;;;;4979182;28;20117;-73
2023/01/05 01:59:06;;;;;;;0.28;0.25;;;11.30;99.90;;;;;;5002083;28;20038;-73
2023/01/05 02:01:33;;;;;;;0.00;0.00;;;11.60;99.90;;;;;;4994225;28;20027;-73
2023/01/05 02:04:00;;;;;;;0.20;0.10;;;11.70;99.90;;;;;;5000545;28;20027;-73
2023/01/05 02:06:26;;;;;;;0.20;0.10;;;11.90;99.90;;;;;;4983781;28;20037;-73
2023/01/05 02:08:52;;;;;;;1.50;0.52;;;12.00;99.90;;;;;;4970042;28;20034;-74
2023/01/05 02:12:21;;;;;;;0.70;0.17;;;12.10;99.90;;;;;;4977864;28;20506;-73
2023/01/05 02:15:11;;;;;;;0.10;0.10;;;12.10;99.90;;;;;;4982359;28;20026;-73
2023/01/05 02:18:11;;;;;;;0.00;0.00;;;12.20;99.90;;;;;;4988980;28;20457;-73
2023/01/05 02:20:53;;;;;;;0.10;0.10;;;12.20;99.90;;;;;;4976267;28;20065;-73
2023/01/05 02:24:06;;;;;;;2.63;0.98;;;12.20;99.90;;;;;;4994595;28;20486;-73
2023/01/05 02:27:01;;;;;;;0.20;0.10;;;12.20;99.90;;;;;;4962378;28;20126;-74
2023/01/05 02:29:32;;;;;;;0.00;0.00;;;12.20;99.90;;;;;;4967588;28;20097;-73
2023/01/05 02:32:26;;;;;;;0.00;0.00;;;12.20;99.90;;;;;;4980192;28;20039;-72
2023/01/05 02:35:21;;;;;;;7.47;0.10;;;12.20;99.90;;;;;;4995914;28;20026;-73
2023/01/05 02:38:11;;;;;;;1.45;0.20;;;12.20;99.90;;;;;;4982082;28;20035;-73
2023/01/05 02:40:44;;;;;;;0.38;0.10;;;12.10;99.90;;;;;;4981772;28;20035;-73
2023/01/05 02:43:20;;;;;;;0.68;0.20;;;12.20;99.90;;;;;;4997115;28;20035;-73
2023/01/05 02:45:47;;;;;;;0.10;0.00;;;12.20;99.90;;;;;;4995713;28;20565;-73
2023/01/05 02:48:13;;;;;;;0.00;0.00;;;12.10;99.90;;;;;;5000369;28;20448;-73
2023/01/05 02:51:01;;;;;;;0.03;0.03;;;12.10;99.90;;;;;;5000568;28;20052;-72
2023/01/05 02:53:35;;;;;;;0.05;0.05;;;12.10;99.90;;;;;;4995609;28;20038;-73
2023/01/05 02:56:17;;;;;;;0.00;0.00;;;12.00;99.90;;;;;;4998442;28;20077;-73
2023/01/05 02:58:50;;;;;;;0.32;0.13;;;12.00;99.90;;;;;;5003881;28;20446;-74
2023/01/05 03:01:41;;;;;;;0.08;0.00;;;12.00;99.90;;;;;;4981754;28;20031;-72
2023/01/05 03:04:19;;;;;;;3.33;0.17;;;12.10;99.90;;;;;;5002399;28;20054;-74
2023/01/05 03:06:56;;;;;;;2.30;0.50;;;12.20;99.90;;;;;;4996634;28;20039;-72
2023/01/05 03:09:27;;;;;;;0.00;0.00;;;12.20;99.90;;;;;;4988281;28;20031;-73
2023/01/05 03:15:21;;;;;;;0.28;0.17;;;12.20;99.90;;;;;;4995501;28;20038;-74
2023/01/05 03:18:03;;;;;;;0.68;0.25;;;12.10;99.90;;;;;;4984942;28;20026;-73
2023/01/05 03:20:33;;;;;;;0.10;0.10;;;12.10;99.90;;;;;;4998724;28;20042;-71
2023/01/05 03:37:41;;;;;;;0.20;0.20;;;11.50;99.90;;;;;;4981261;28;20050;-72
2023/01/05 03:40:16;;;;;;;0.28;0.20;;;11.50;99.90;;;;;;4989829;28;20027;-73
2023/01/05 03:42:42;;;;;;;0.20;0.13;;;11.50;99.90;;;;;;4999477;28;20038;-73
2023/01/05 03:45:10;;;;;;;0.22;0.22;;;11.40;99.90;;;;;;4984320;28;20649;-73
2023/01/05 03:47:35;;;;;;;1.25;0.20;;;11.40;99.90;;;;;;4999491;28;20034;-73
2023/01/05 03:50:01;;;;;;;2.92;0.20;;;11.50;99.90;;;;;;4984035;28;20035;-72
2023/01/05 03:52:27;;;;;;;0.50;0.20;;;11.50;99.90;;;;;;4984967;28;20121;-73
2023/01/05 03:54:52;;;;;;;0.57;0.13;;;11.50;99.90;;;;;;4999483;28;20114;-73
2023/01/05 03:57:18;;;;;;;2.20;0.35;;;11.60;99.90;;;;;;4983291;28;20728;-73
2023/01/05 03:59:44;;;;;;;4.43;1.10;;;11.80;99.90;;;;;;4984866;28;20031;-72
2023/01/05 04:02:09;;;;;;;1.52;0.20;;;12.10;99.90;;;;;;4994343;28;20137;-73
2023/01/05 04:04:35;;;;;;;0.55;0.22;;;12.10;99.90;;;;;;4970883;28;20491;-72
2023/01/05 04:07:01;;;;;;;3.85;1.02;;;12.20;99.90;;;;;;4975846;28;20479;-73
2023/01/05 04:09:26;;;;;;;6.75;0.63;;;12.30;99.90;;;;;;4985776;28;20057;-73
2023/01/05 04:11:52;;;;;;;0.35;0.17;;;12.40;99.90;;;;;;4984607;28;20038;-73
2023/01/05 04:14:18;;;;;;;3.92;1.00;;;12.30;99.90;;;;;;4972493;28;20035;-73
2023/01/05 04:16:43;;;;;;;6.50;0.52;;;12.30;99.90;;;;;;4980363;28;20070;-73
2023/01/05 04:19:10;;;;;;;3.17;0.32;;;12.30;99.90;;;;;;4987376;28;20030;-74
2023/01/05 04:21:35;;;;;;;2.75;0.50;;;12.30;99.90;;;;;;4980805;28;20546;-73
2023/01/05 04:24:01;;;;;;;6.38;0.50;;;12.40;99.90;;;;;;4975832;28;20117;-73
2023/01/05 04:26:27;;;;;;;4.40;0.65;;;12.30;99.90;;;;;;4980604;28;20046;-74
2023/01/05 04:28:52;;;;;;;2.33;0.47;;;12.30;99.90;;;;;;4988835;28;20038;-73
2023/01/05 04:31:18;;;;;;;3.75;1.48;;;12.30;99.90;;;;;;4979848;28;20039;-73
2023/01/05 04:33:44;;;;;;;3.92;1.33;;;12.20;99.90;;;;;;4987587;28;20030;-73
2023/01/05 04:36:10;;;;;;;4.25;0.47;;;12.20;99.90;;;;;;4980528;28;21344;-73
2023/01/05 04:38:36;;;;;;;2.45;0.38;;;12.20;99.90;;;;;;4986306;28;20105;-73
2023/01/05 04:41:02;;;;;;;2.35;0.38;;;12.20;99.90;;;;;;4996496;28;20145;-73
2023/01/05 04:43:27;;;;;;;1.75;0.30;;;12.10;99.90;;;;;;5000086;28;20030;-74
2023/01/05 04:45:53;;;;;;;2.03;0.57;;;12.10;99.90;;;;;;4998093;28;20042;-74
2023/01/05 04:48:19;;;;;;;10.32;0.65;;;12.10;99.90;;;;;;4983645;28;20027;-73
2023/01/05 04:50:50;;;;;;;0.73;0.17;;;12.00;99.90;;;;;;4982171;28;20038;-74
2023/01/05 04:53:16;;;;;;;17.42;1.70;;;12.10;99.90;;;;;;4990222;28;20038;-73
2023/01/05 04:55:44;;;;;;;1.98;0.63;;;12.00;99.90;;;;;;4982944;28;20050;-74
2023/01/05 04:58:10;;;;;;;1.77;0.68;;;12.00;99.90;;;;;;4983076;28;20022;-74
2023/01/05 05:00:36;;;;;;;6.38;1.20;;;12.00;99.90;;;;;;4997697;28;20032;-74
2023/01/05 05:03:02;;;;;;;7.85;1.23;;;11.90;99.90;;;;;;4997774;28;20018;-73
2023/01/05 05:05:28;;;;;;;6.22;0.70;;;11.90;99.90;;;;;;4982647;28;20092;-73
2023/01/05 05:07:53;;;;;;;0.43;0.25;;;11.90;99.90;;;;;;4983200;28;20627;-73
2023/01/05 05:10:19;;;;;;;2.97;0.52;;;11.90;99.90;;;;;;4979225;28;20044;-74
2023/01/05 05:12:45;;;;;;;3.63;0.57;;;11.80;99.90;;;;;;4980058;28;20133;-73
2023/01/05 05:15:11;;;;;;;3.60;0.55;;;11.80;99.90;;;;;;4992398;28;20065;-73
2023/01/05 05:17:37;;;;;;;3.97;0.38;;;11.80;99.90;;;;;;4979462;28;20110;-73
2023/01/05 05:20:04;;;;;;;2.92;1.42;;;11.80;99.90;;;;;;4985704;28;20462;-73
2023/01/05 05:22:30;;;;;;;11.27;1.08;;;11.70;99.90;;;;;;4970893;28;20027;-73
2023/01/05 05:24:56;;;;;;;2.15;0.55;;;11.70;99.90;;;;;;4980269;28;20035;-73
2023/01/05 05:27:21;;;;;;;2.03;0.55;;;11.70;99.90;;;;;;4979619;28;20042;-73
2023/01/05 05:29:47;;;;;;;6.68;0.93;;;11.70;99.90;;;;;;4966316;28;20825;-73
2023/01/05 05:32:13;;;;;;;6.05;0.85;;;11.70;99.90;;;;;;4987871;28;20129;-73
2023/01/05 05:34:38;;;;;;;1.95;0.68;;;11.70;99.90;;;;;;4978492;28;20055;-73
2023/01/05 05:37:04;;;;;;;5.72;1.75;;;11.70;99.90;;;;;;4974526;28;20506;-72
2023/01/05 05:39:30;;;;;;;7.97;1.38;;;11.70;99.90;;;;;;4975761;28;20057;-72
2023/01/05 05:41:56;;;;;;;3.20;0.40;;;11.70;99.90;;;;;;4979845;28;20022;-72
2023/01/05 05:44:21;;;;;;;6.22;1.48;;;11.60;99.90;;;;;;4976816;28;20130;-72
2023/01/05 05:46:47;;;;;;;4.53;0.75;;;11.60;99.90;;;;;;4974831;28;20751;-71
2023/01/05 05:49:13;;;;;;;5.20;1.90;;;11.60;99.90;;;;;;4993792;28;20100;-72
2023/01/05 05:51:39;;;;;;;6.13;1.15;;;11.70;99.90;;;;;;5000605;28;20058;-71
2023/01/05 05:54:04;;;;;;;3.00;0.63;;;11.60;99.90;;;;;;4983888;28;20449;-71
2023/01/05 05:56:30;;;;;;;9.82;0.93;;;11.60;99.90;;;;;;4994747;28;20035;-71
2023/01/05 05:58:56;;;;;;;7.95;1.33;;;11.60;99.90;;;;;;4974722;28;20034;-71
2023/01/05 06:01:22;;;;;;;1.38;0.38;;;11.60;99.90;;;;;;4983972;28;20108;-72
2023/01/05 06:03:47;;;;;;;3.15;0.77;;;11.50;99.90;;;;;;4986400;28;20041;-72
2023/01/05 06:06:13;;;;;;;5.85;0.80;;;11.50;99.90;;;;;;4980235;28;20039;-72
2023/01/05 06:08:39;;;;;;;10.48;1.35;;;11.50;99.90;;;;;;4976779;28;20085;-72
2023/01/05 06:11:05;;;;;;;1.42;0.40;;;11.50;99.90;;;;;;4973682;28;20545;-72
2023/01/05 06:13:30;;;;;;;5.72;0.80;;;11.50;99.90;;;;;;4986715;28;20036;-74
2023/01/05 06:15:56;;;;;;;9.02;0.80;;;11.50;99.90;;;;;;5002416;28;20070;-74
2023/01/05 06:18:22;;;;;;;11.20;1.35;;;11.40;99.90;;;;;;5004363;28;20397;-73
2023/01/05 06:20:47;;;;;;;3.47;1.10;;;11.40;99.90;;;;;;4986412;28;20042;-72
2023/01/05 06:23:14;;;;;;;7.68;0.90;;;11.40;99.90;;;;;;4991941;28;20631;-73
2023/01/05 06:25:40;;;;;;;2.22;0.45;;;11.30;99.90;;;;;;4985787;28;20069;-72
2023/01/05 06:28:06;;;;;;;1.67;0.75;;;11.20;99.90;;;;;;5003829;28;20030;-73
2023/01/05 06:30:40;;;;;;;2.97;0.40;;;11.30;99.90;;;;;;4982112;28;20035;-73
2023/01/05 06:33:06;;;;;;;6.70;0.60;;;11.30;99.90;;;;;;4976147;28;20038;-74
2023/01/05 06:35:31;;;;;;;9.13;0.98;;;11.40;99.90;;;;;;4985925;28;20105;-73
2023/01/05 06:37:57;;;;;;;6.18;1.38;;;11.30;99.90;;;;;;4977796;28;20653;-74
2023/01/05 06:40:23;;;;;;;1.52;0.45;;;11.20;99.90;;;;;;4985726;28;20400;-73
2023/01/05 06:42:49;;;;;;;15.15;1.52;;;11.20;99.90;;;;;;4989588;28;20074;-74
2023/01/05 06:45:15;;;;;;;6.35;0.90;;;11.30;99.90;;;;;;4985639;28;20449;-73
2023/01/05 06:47:42;;;;;;;13.38;1.08;;;11.20;99.90;;;;;;4990087;28;20121;-73
2023/01/05 06:50:09;;;;;;;9.18;1.48;;;11.20;99.90;;;;;;4984507;28;20125;-73
2023/01/05 06:52:38;;;;;;;2.53;1.25;;;11.20;99.90;;;;;;4990993;28;20378;-73
2023/01/05 06:55:07;;;;;;;14.70;2.35;;;11.20;99.90;;;;;;4984285;28;20031;-73
2023/01/05 06:57:32;;;;;;;11.30;1.90;;;11.20;99.90;;;;;;4991314;28;20065;-73
2023/01/05 06:59:58;;;;;;;5.18;1.38;;;11.20;99.90;;;;;;4983325;28;20486;-72
2023/01/05 07:02:24;;;;;;;15.63;1.35;;;11.20;99.90;;;;;;4975407;28;20113;-77
2023/01/05 07:04:49;;;;;;;7.85;1.27;;;11.10;99.90;;;;;;4982035;28;20097;-73
2023/01/05 07:07:15;;;;;;;3.13;0.70;;;11.10;99.90;;;;;;4970543;28;20508;-73
2023/01/05 07:09:41;;;;;;;6.00;0.88;;;11.10;99.90;;;;;;4981047;28;20037;-71
2023/01/05 07:12:07;;;;;;;10.10;1.88;;;11.10;99.90;;;;;;4975618;28;20546;-74
2023/01/05 07:14:33;;;;;;;11.93;1.20;;;11.10;99.90;;;;;;4981694;28;20042;-71
2023/01/05 07:16:59;;;;;;;2.88;0.93;;;11.10;99.90;;;;;;4975478;28;20038;-73
2023/01/05 07:19:25;;;;;;;2.40;0.85;;;11.10;99.90;;;;;;4980814;28;20043;-73
2023/01/05 07:21:51;;;;;;;1.08;0.40;;;11.10;99.90;;;;;;5014692;23;20069;-72
2023/01/05 07:24:16;;;;;;;1.55;0.38;;;11.10;99.90;;;;;;5011959;28;20478;-61
2023/01/05 07:26:42;;;;;;;5.30;1.20;;;11.10;99.90;;;;;;5005143;28;20049;-60
2023/01/05 07:29:08;;;;;;;8.13;0.60;;;11.20;99.90;;;;;;5019677;28;20037;-66
2023/01/05 07:31:33;;;;;;;12.38;1.02;;;11.10;99.90;;;;;;5010102;28;20034;-74
2023/01/05 07:33:59;;;;;;;3.55;1.05;;;11.20;99.90;;;;;;5012150;28;20037;-74
2023/01/05 07:36:25;;;;;;;1.33;0.40;;;11.20;99.90;;;;;;5008629;28;20116;-74
2023/01/05 07:38:52;;;;;;;2.40;0.98;;;11.20;99.90;;;;;;5008982;28;20031;-74
2023/01/05 07:41:18;;;;;;;5.43;0.93;;;11.10;99.90;;;;;;5011243;28;20076;-74
2023/01/05 07:43:47;;;;;;;4.43;0.52;;;11.20;99.90;;;;;;5012548;28;20453;-74
2023/01/05 07:46:14;;;;;;;5.10;1.10;;;11.20;99.90;;;;;;5010083;28;20045;-74
2023/01/05 07:48:40;;;;;;;12.00;1.33;;;11.10;99.90;;;;;;5003600;28;20030;-74
2023/01/05 07:51:07;;;;;;;4.72;1.02;;;11.10;99.90;;;;;;5009873;28;20026;-75
2023/01/05 07:53:37;;;;;;;9.95;1.65;;;11.10;99.90;;;;;;5012030;28;20799;-73
2023/01/05 07:56:04;;;;;;;7.15;1.10;;;11.10;99.90;;;;;;5025041;28;20042;-72
2023/01/05 07:58:31;;;;;;;6.95;0.70;;;11.20;99.90;;;;;;5011725;28;20033;-72
2023/01/05 08:01:01;;;;;;;2.55;0.88;;;11.20;99.90;;;;;;5010003;28;20034;-70
2023/01/05 08:03:26;;;;;;;7.35;1.85;;;11.20;99.90;;;;;;5010832;28;20367;-70
2023/01/05 08:05:52;;;;;;;5.28;0.68;;;11.30;99.90;;;;;;5007980;28;20117;-70
2023/01/05 08:08:18;;;;;;;7.35;1.25;;;11.40;99.90;;;;;;5001705;28;20561;-70
2023/01/05 08:10:43;;;;;;;4.15;1.30;;;11.50;99.90;;;;;;5011032;28;20057;-71
2023/01/05 08:15:56;;;;;;;7.15;0.75;;;11.60;99.90;;;;;;5009956;28;20065;-70
2023/01/05 08:18:22;;;;;;;5.88;0.77;;;11.70;99.90;;;;;;5011118;28;20017;-70
2023/01/05 08:20:53;;;;;;;6.90;1.00;;;11.70;99.90;;;;;;5026129;28;20125;-70
2023/01/05 08:23:21;;;;;;;2.20;0.82;;;11.70;99.90;;;;;;5002880;28;20088;-70
2023/01/05 08:25:46;;;;;;;1.58;0.52;;;11.70;99.90;;;;;;5010849;28;20041;-71
2023/01/05 08:28:12;;;;;;;6.22;0.82;;;11.70;99.90;;;;;;5011069;28;20083;-70
2023/01/05 08:30:38;;;;;;;10.02;1.23;;;11.70;99.90;;;;;;5010644;28;20033;-70
2023/01/05 08:33:04;;;;;;;15.70;1.13;;;11.70;99.90;;;;;;5011288;28;20029;-71
2023/01/05 08:35:30;;;;;;;7.85;1.38;;;11.60;99.90;;;;;;4992529;28;20041;-71
2023/01/05 08:37:56;;;;;;;2.20;0.38;;;11.60;99.90;;;;;;5010739;28;20022;-71
2023/01/05 08:40:22;;;;;;;2.40;0.68;;;11.70;99.90;;;;;;5010654;28;20053;-71
2023/01/05 08:42:48;;;;;;;3.50;1.42;;;11.70;99.90;;;;;;5011342;28;20127;-71
2023/01/05 08:45:15;;;;;;;7.57;1.08;;;11.70;99.90;;;;;;5010735;28;20025;-72
2023/01/05 08:47:41;;;;;;;3.58;0.80;;;11.70;99.90;;;;;;5010781;28;20034;-71
2023/01/05 08:50:08;;;;;;;4.35;0.77;;;11.70;99.90;;;;;;5025605;28;20041;-71
2023/01/05 08:52:36;;;;;;;1.35;0.60;;;11.80;99.90;;;;;;5009742;28;20128;-72
2023/01/05 08:55:01;;;;;;;1.95;0.50;;;11.80;99.90;;;;;;5009696;28;20397;-71
2023/01/05 08:57:28;;;;;;;4.32;1.95;;;11.80;99.90;;;;;;5009758;28;20042;-70
2023/01/05 08:59:54;;;;;;;4.20;0.98;;;11.90;99.90;;;;;;5008555;28;20489;-70
2023/01/05 09:02:19;;;;;;;8.70;0.90;;;11.80;99.90;;;;;;5010995;28;20084;-70
2023/01/05 09:04:45;;;;;;;4.93;0.47;;;11.80;99.90;;;;;;5009900;28;20095;-70
2023/01/05 09:07:11;;;;;;;8.15;1.10;;;11.90;99.90;;;;;;4997357;28;20124;-71
2023/01/05 09:09:37;;;;;;;3.97;1.63;;;11.90;99.90;;;;;;5009739;28;20105;-70
2023/01/05 09:12:03;;;;;;;7.63;1.58;;;11.80;99.90;;;;;;5007745;28;20041;-70
2023/01/05 09:14:29;;;;;;;1.67;0.50;;;11.80;99.90;;;;;;5010585;28;20041;-71
2023/01/05 09:16:55;;;;;;;4.28;1.05;;;11.80;99.90;;;;;;5008196;28;20034;-71
2023/01/05 09:19:21;;;;;;;4.40;1.08;;;11.80;99.90;;;;;;5006859;28;20034;-71
2023/01/05 09:21:46;;;;;;;8.82;0.90;;;11.80;99.90;;;;;;5003441;28;20448;-71
2023/01/05 09:24:12;;;;;;;8.05;1.27;;;11.80;99.90;;;;;;5009197;28;20111;-71
2023/01/05 09:26:38;;;;;;;1.30;0.50;;;11.90;99.90;;;;;;5009666;28;20107;-71
2023/01/05 09:29:04;;;;;;;12.30;1.60;;;11.80;99.90;;;;;;5009186;28;20064;-72
2023/01/05 09:31:30;;;;;;;0.75;0.40;;;11.80;99.90;;;;;;5011008;28;20066;-71
2023/01/05 09:33:57;;;;;;;11.70;1.25;;;11.90;99.90;;;;;;5010227;28;20512;-71
2023/01/05 09:36:24;;;;;;;1.88;0.68;;;11.90;99.90;;;;;;5008494;28;20061;-73
2023/01/05 09:38:55;;;;;;;7.68;1.38;;;11.90;99.90;;;;;;5009219;28;20022;-71
2023/01/05 09:42:00;;;;;;;1.20;0.52;;;12.00;99.90;;;;;;5008485;28;20038;-70
2023/01/05 09:44:43;;;;;;;1.35;0.40;;;12.00;99.90;;;;;;4943225;29;20127;-70
2023/01/05 09:47:14;;;;;;;5.57;0.63;;;11.90;99.90;;;;;;5011872;28;20046;-68
2023/01/05 09:49:40;;;;;;;4.03;0.85;;;12.00;99.90;;;;;;5010201;28;20038;-70
2023/01/05 09:52:09;;;;;;;2.70;0.90;;;12.00;99.90;;;;;;5009503;28;20026;-69
2023/01/05 09:54:38;;;;;;;8.98;1.77;;;12.00;99.90;;;;;;5010390;28;20065;-70
2023/01/05 09:57:14;;;;;;;5.55;1.00;;;12.00;99.90;;;;;;5008191;28;20041;-70
2023/01/05 09:59:48;;;;;;;5.47;0.93;;;12.00;99.90;;;;;;5009028;28;20137;-70
2023/01/05 10:02:32;;;;;;;18.42;1.67;;;12.00;99.90;;;;;;5008386;28;20040;-69
2023/01/05 10:05:01;;;;;;;6.45;1.05;;;12.00;99.90;;;;;;5008297;28;20045;-70
2023/01/05 10:07:46;;;;;;;2.80;0.93;;;12.10;99.90;;;;;;5007953;28;20038;-71
2023/01/05 10:13:01;;;;;;;3.80;0.93;;;12.20;99.90;;;;;;5001697;28;20097;-69
2023/01/05 10:13:36;;;;;;;8.10;1.55;;;12.20;99.90;;;;;;5006902;28;20045;-71
2023/01/05 10:16:02;;;;;;;7.63;1.77;;;12.30;99.90;;;;;;5008264;28;20494;-71
2023/01/05 10:18:30;;;;;;;11.07;1.92;;;12.40;99.90;;;;;;5008564;28;20040;-71
2023/01/05 10:21:07;;;;;;;11.10;2.30;;;12.40;99.90;;;;;;5008974;28;20398;-70
2023/01/05 10:24:00;;;;;;;7.80;1.27;;;12.40;99.90;;;;;;5009608;28;20030;-71
2023/01/05 10:26:57;;;;;;;1.92;0.70;;;12.40;99.90;;;;;;5008717;28;20042;-71
2023/01/05 10:29:36;;;;;;;7.38;1.10;;;12.50;99.90;;;;;;5010820;28;20524;-71
2023/01/05 10:32:50;;;;;;;5.80;0.85;;;12.50;99.90;;;;;;5007636;28;20401;-71
2023/01/05 10:35:52;;;;;;;5.25;1.90;;;12.40;99.90;;;;;;4993394;28;20497;-71
2023/01/05 10:38:54;;;;;;;3.42;1.20;;;12.40;99.90;;;;;;5003789;28;20046;-71
2023/01/05 10:41:38;;;;;;;14.77;1.73;;;12.50;99.90;;;;;;5001969;28;20040;-71
2023/01/05 10:44:34;;;;;;;4.90;1.35;;;12.50;99.90;;;;;;5009726;28;20026;-70
2023/01/05 10:47:00;;;;;;;3.65;1.00;;;12.60;99.90;;;;;;5006950;28;20030;-71
2023/01/05 10:49:30;;;;;;;2.10;0.52;;;12.60;99.90;;;;;;5008792;28;20030;-71
2023/01/05 10:52:00;;;;;;;6.80;1.27;;;12.70;99.90;;;;;;5007894;28;20165;-70
2023/01/05 10:54:39;;;;;;;4.00;1.30;;;12.60;99.90;;;;;;5009867;28;20031;-71
2023/01/05 10:57:34;;;;;;;5.70;1.20;;;12.60;99.90;;;;;;5008733;28;20034;-71
2023/01/05 11:00:20;;;;;;;11.95;1.17;;;12.60;99.90;;;;;;5010296;28;20034;-70
2023/01/05 11:02:58;;;;;;;1.65;0.60;;;12.60;99.90;;;;;;5013163;28;20034;-69
2023/01/05 11:05:44;;;;;;;5.60;0.90;;;12.60;99.90;;;;;;4998141;28;20038;-69
2023/01/05 11:08:20;;;;;;;3.83;1.50;;;12.70;99.90;;;;;;5011606;28;20498;-70
2023/01/05 11:11:04;;;;;;;5.57;0.55;;;12.80;99.90;;;;;;5011060;28;20124;-68
2023/01/05 11:13:35;;;;;;;3.33;1.20;;;12.80;99.90;;;;;;5006774;28;20037;-71
2023/01/05 11:16:21;;;;;;;7.22;0.82;;;12.90;99.90;;;;;;5011063;28;20061;-68
2023/01/05 11:18:51;;;;;;;6.65;1.00;;;13.00;99.90;;;;;;5012664;28;20877;-72
2023/01/05 11:21:27;;;;;;;7.53;1.08;;;13.00;99.90;;;;;;5012040;28;20030;-72
2023/01/05 11:23:56;;;;;;;8.57;1.10;;;13.20;99.90;;;;;;5012296;28;20465;-70
2023/01/05 11:26:35;;;;;;;8.57;1.58;;;13.20;99.90;;;;;;5012024;28;20034;-71
2023/01/05 11:29:07;;;;;;;5.85;1.00;;;13.00;99.90;;;;;;5012751;28;20029;-70
2023/01/05 11:31:57;;;;;;;4.47;1.23;;;12.90;99.90;;;;;;5011815;28;20040;-68
2023/01/05 11:34:42;;;;;;;5.47;0.60;;;12.80;99.90;;;;;;5013537;28;20033;-66
2023/01/05 11:37:11;;;;;;;8.73;2.05;;;12.80;99.90;;;;;;5008957;28;20033;-67
2023/01/05 11:39:45;;;;;;;11.43;1.83;;;12.80;99.90;;;;;;5007540;28;20460;-66
2023/01/05 11:42:23;;;;;;;8.13;2.17;;;12.70;99.90;;;;;;5011370;28;20034;-67
2023/01/05 11:45:15;;;;;;;10.48;1.00;;;12.70;99.90;;;;;;5012402;28;20633;-67
2023/01/05 11:47:58;;;;;;;8.77;1.35;;;12.60;99.90;;;;;;5010581;28;20037;-67
2023/01/05 11:50:43;;;;;;;7.38;1.55;;;12.50;99.90;;;;;;5010373;28;20026;-67
2023/01/05 11:53:24;;;;;;;2.35;1.13;;;12.50;99.90;;;;;;5009448;28;20026;-67
2023/01/05 11:56:25;;;;;;;9.38;1.17;;;12.50;99.90;;;;;;5011421;28;20140;-67
2023/01/05 11:58:54;;;;;;;5.45;0.95;;;12.50;99.90;;;;;;5006759;28;20042;-68
2023/01/05 12:02:03;;;;;;;4.93;0.93;;;12.50;99.90;;;;;;5011192;28;20030;-66
2023/01/05 12:05:03;;;;;;;9.23;1.70;;;12.60;99.90;;;;;;5010367;28;20084;-67
2023/01/05 12:07:33;;;;;;;8.63;1.50;;;12.70;99.90;;;;;;5005345;28;20129;-67
2023/01/05 12:10:26;;;;;;;3.53;0.73;;;12.60;99.90;;;;;;5009566;28;20045;-73
2023/01/05 12:13:20;;;;;;;5.93;1.00;;;12.70;99.90;;;;;;5004174;28;20080;-72
2023/01/05 12:16:29;;;;;;;6.90;1.33;;;12.90;99.90;;;;;;5009995;28;20394;-75
2023/01/05 12:19:19;;;;;;;4.85;1.05;;;12.90;99.90;;;;;;5007763;28;20105;-71
2023/01/05 12:22:28;;;;;;;6.10;0.88;;;12.90;99.90;;;;;;5010456;28;20105;-73
2023/01/05 12:25:25;;;;;;;4.93;2.13;;;13.00;99.90;;;;;;5008443;28;20037;-77
2023/01/05 12:28:18;;;;;;;10.93;1.92;;;13.20;99.90;;;;;;5007943;28;20034;-72
2023/01/05 12:31:29;;;;;;;9.20;1.40;;;13.00;99.90;;;;;;5010686;28;20037;-72
2023/01/05 12:34:35;;;;;;;2.88;0.70;;;13.00;99.90;;;;;;5007442;28;20030;-73
2023/01/05 12:37:20;;;;;;;13.27;2.63;;;12.90;99.90;;;;;;5010199;28;20044;-72
2023/01/05 12:39:54;;;;;;;8.70;1.70;;;12.80;99.90;;;;;;5009924;28;20564;-72
2023/01/05 12:42:52;;;;;;;3.05;0.95;;;12.80;99.90;;;;;;5003955;28;20037;-73
2023/01/05 12:46:12;;;;;;;6.75;0.95;;;12.80;99.90;;;;;;5010508;28;20033;-72
2023/01/05 12:48:59;;;;;;;7.55;1.52;;;12.70;99.90;;;;;;5006103;28;20396;-72
2023/01/05 12:51:40;;;;;;;6.82;0.85;;;12.80;99.90;;;;;;5009219;28;20101;-72
2023/01/05 12:54:48;;;;;;;6.18;0.70;;;12.80;99.90;;;;;;5009943;28;20045;-71
2023/01/05 12:57:22;;;;;;;2.50;0.70;;;12.90;99.90;;;;;;5009899;28;20104;-72
2023/01/05 13:00:02;;;;;;;3.15;0.93;;;12.80;99.90;;;;;;5010083;28;20026;-72
2023/01/05 13:02:43;;;;;;;2.25;0.95;;;12.90;99.90;;;;;;5004509;28;20069;-72
2023/01/05 13:05:40;;;;;;;4.35;0.88;;;13.00;99.90;;;;;;5006025;28;20470;-72
2023/01/05 13:08:40;;;;;;;6.45;1.17;;;13.00;99.90;;;;;;5009193;28;20564;-73
2023/01/05 13:11:44;;;;;;;6.47;1.15;;;12.90;99.90;;;;;;5004639;28;20038;-73
2023/01/05 13:14:23;;;;;;;10.93;1.30;;;12.90;99.90;;;;;;5008726;28;20038;-72
2023/01/05 13:17:02;;;;;;;18.77;2.42;;;12.90;99.90;;;;;;5001131;28;20061;-73
2023/01/05 13:20:00;;;;;;;8.15;1.15;;;12.80;99.90;;;;;;5003317;28;20041;-74
2023/01/05 13:22:33;;;;;;;9.27;1.15;;;12.80;99.90;;;;;;5011095;23;20072;-79
2023/01/05 13:25:21;;;;;;;4.07;1.40;;;12.80;99.90;;;;;;5000332;28;20030;-88
2023/01/05 13:27:47;;;;;;;12.40;1.92;;;12.70;99.90;;;;;;5019092;28;20068;-88
2023/01/05 14:15:41;;;;;;;7.53;1.83;;;12.70;99.90;;;;;;5028451;23;20735;-77
2023/01/05 14:18:51;;;;;;;5.25;1.10;;;12.80;99.90;;;;;;5004453;28;20843;-83
2023/01/05 14:22:32;;;;;;;3.92;1.38;;;12.70;99.90;;;;;;4967719;28;20046;-87
2023/01/05 14:25:18;;;;;;;3.77;0.90;;;12.80;99.90;;;;;;4978360;28;20129;-90
2023/01/05 14:28:28;;;;;;;5.68;0.98;;;12.70;99.90;;;;;;4981418;28;20289;-88
2023/01/05 14:31:20;;;;;;;6.85;1.00;;;12.70;99.90;;;;;;4957890;28;20117;-87
2023/01/05 14:33:50;;;;;;;3.22;1.55;;;12.70;99.90;;;;;;4993733;28;20382;-91
2023/01/05 14:36:42;;;;;;;15.98;2.30;;;12.70;99.90;;;;;;4989923;28;20629;-92